메인 페이지
METAR-TAF:

METAR-TAF

공항 :

Watertown, 뉴욕, 미국

위도: 43-59-31N, 경도: 076-01-18W, 고도: 99m

현재 날씨관측

예보는 24분 전, 18:56시(UTC)에 발표되었습니다.
서북서8kt
온도 2°C
습도 75%
기압 1018 hPa
시정: 16.1km
고도 1900ft 상공 흐림

METAR: KART 231856Z AUTO 29008KT 10SM OVC019 02/M02 A3006 RMK AO2 SLP183 T00221022

시각: 14:20 (19:20 UTC)

예보

예보는 1 시간 41분 전, 17:39시(UTC)에 발표되었습니다.
예보 대상 시간: 23일 18시부터 24일 18시까지 (UTC)
12kt
시정: 10km
고도 1500ft 상공 구름 많음
24일 0000시부터 (UTC)
서북서6kt
시정: 10km
고도 4000ft 상공 구름 많음
24일 0400시부터 (UTC)
북북서5kt
시정: 10km
고도 2500ft 상공 구름 많음
24일 1000시부터 (UTC)
5kt
시정: 10km
고도 4000ft 상공 구름 많음

TAF: KART 231739Z 2318/2418 28012KT P6SM BKN015 FM240000 30006KT P6SM BKN040 FM240400 33005KT P6SM BKN025 FM241000 36005KT P6SM BKN040

4,000개 이상의 공항 관측 자료 및 예보 (METAR 및 TAF 보고).

지도상에서 검색 가능한 기상관측소가 노란 점과 빨간 점으로 표시되어 있습니다.

기상관측소 명을 보려면 표시 위로 마우스를 이동하세요.

날씨 관측과 예보를 보려면 클릭하세요.

지도 변경 : 확대하려면 엑스 표시가 있는 녹색 버튼, 축소하려면 빼기 표시가 있는 녹색 버튼, 다음 페이지의 지도를 보려면 녹색 화살표를 클릭하세요.


METAR-TAF: